sensor_id;sensor_type;location;lat;lon;timestamp;P1;durP1;ratioP1;P2;durP2;ratioP2
57231;SDS011;43488;46.934;8.276;2023-04-23T00:01:19;578.30;;;224.57;;
57231;SDS011;43488;46.934;8.276;2023-04-23T00:04:14;606.13;;;263.90;;
57231;SDS011;43488;46.934;8.276;2023-04-23T00:06:45;578.80;;;226.00;;
57231;SDS011;43488;46.934;8.276;2023-04-23T00:09:16;599.22;;;257.92;;
57231;SDS011;43488;46.934;8.276;2023-04-23T00:11:44;610.72;;;274.25;;
57231;SDS011;43488;46.934;8.276;2023-04-23T00:14:14;592.47;;;244.85;;
57231;SDS011;43488;46.934;8.276;2023-04-23T00:16:41;591.78;;;243.32;;
57231;SDS011;43488;46.934;8.276;2023-04-23T00:22:02;579.53;;;235.82;;
57231;SDS011;43488;46.934;8.276;2023-04-23T00:24:30;618.50;;;279.98;;
57231;SDS011;43488;46.934;8.276;2023-04-23T00:26:59;617.80;;;279.05;;
57231;SDS011;43488;46.934;8.276;2023-04-23T00:29:39;624.13;;;279.83;;
57231;SDS011;43488;46.934;8.276;2023-04-23T00:32:09;605.28;;;264.45;;
57231;SDS011;43488;46.934;8.276;2023-04-23T00:35:04;618.03;;;279.08;;
57231;SDS011;43488;46.934;8.276;2023-04-23T00:37:35;613.35;;;272.58;;
57231;SDS011;43488;46.934;8.276;2023-04-23T00:40:02;620.22;;;272.23;;
57231;SDS011;43488;46.934;8.276;2023-04-23T00:42:32;627.38;;;280.80;;
57231;SDS011;43488;46.934;8.276;2023-04-23T00:44:59;621.75;;;272.25;;
57231;SDS011;43488;46.934;8.276;2023-04-23T00:47:28;628.88;;;286.02;;
57231;SDS011;43488;46.934;8.276;2023-04-23T00:52:42;612.40;;;261.20;;
57231;SDS011;43488;46.934;8.276;2023-04-23T00:55:09;619.65;;;274.85;;
57231;SDS011;43488;46.934;8.276;2023-04-23T00:57:37;616.50;;;277.00;;
57231;SDS011;43488;46.934;8.276;2023-04-23T01:00:05;621.17;;;276.58;;
57231;SDS011;43488;46.934;8.276;2023-04-23T01:02:35;615.45;;;275.35;;
57231;SDS011;43488;46.934;8.276;2023-04-23T01:05:07;619.65;;;277.33;;
57231;SDS011;43488;46.934;8.276;2023-04-23T01:07:38;621.17;;;282.25;;
57231;SDS011;43488;46.934;8.276;2023-04-23T01:10:06;621.45;;;280.13;;
57231;SDS011;43488;46.934;8.276;2023-04-23T01:12:35;619.17;;;276.35;;
57231;SDS011;43488;46.934;8.276;2023-04-23T01:15:09;615.72;;;271.90;;
57231;SDS011;43488;46.934;8.276;2023-04-23T01:17:40;628.15;;;278.48;;
57231;SDS011;43488;46.934;8.276;2023-04-23T01:20:08;629.50;;;275.50;;
57231;SDS011;43488;46.934;8.276;2023-04-23T01:22:39;625.75;;;280.55;;
57231;SDS011;43488;46.934;8.276;2023-04-23T01:25:06;610.33;;;264.08;;
57231;SDS011;43488;46.934;8.276;2023-04-23T01:27:35;612.20;;;272.63;;
57231;SDS011;43488;46.934;8.276;2023-04-23T01:30:04;622.33;;;281.65;;
57231;SDS011;43488;46.934;8.276;2023-04-23T01:32:32;612.45;;;271.83;;
57231;SDS011;43488;46.934;8.276;2023-04-23T01:35:01;616.60;;;273.35;;
57231;SDS011;43488;46.934;8.276;2023-04-23T01:37:30;615.85;;;269.10;;
57231;SDS011;43488;46.934;8.276;2023-04-23T01:39:59;623.42;;;275.98;;
57231;SDS011;43488;46.934;8.276;2023-04-23T01:42:27;616.92;;;270.30;;
57231;SDS011;43488;46.934;8.276;2023-04-23T01:44:54;631.33;;;280.17;;
57231;SDS011;43488;46.934;8.276;2023-04-23T01:47:22;632.78;;;279.58;;
57231;SDS011;43488;46.934;8.276;2023-04-23T01:49:50;631.65;;;280.30;;
57231;SDS011;43488;46.934;8.276;2023-04-23T01:55:02;624.42;;;273.88;;
57231;SDS011;43488;46.934;8.276;2023-04-23T01:57:30;616.95;;;271.25;;
57231;SDS011;43488;46.934;8.276;2023-04-23T02:00:00;625.33;;;273.92;;
57231;SDS011;43488;46.934;8.276;2023-04-23T02:02:38;574.80;;;252.30;;
57231;SDS011;43488;46.934;8.276;2023-04-23T02:05:12;580.93;;;256.90;;
57231;SDS011;43488;46.934;8.276;2023-04-23T02:07:47;594.95;;;268.48;;
57231;SDS011;43488;46.934;8.276;2023-04-23T02:10:25;589.50;;;260.38;;
57231;SDS011;43488;46.934;8.276;2023-04-23T02:12:52;564.80;;;250.32;;
57231;SDS011;43488;46.934;8.276;2023-04-23T02:15:20;573.22;;;252.93;;
57231;SDS011;43488;46.934;8.276;2023-04-23T02:17:48;583.38;;;262.73;;
57231;SDS011;43488;46.934;8.276;2023-04-23T02:20:19;585.57;;;258.53;;
57231;SDS011;43488;46.934;8.276;2023-04-23T02:22:47;580.80;;;254.02;;
57231;SDS011;43488;46.934;8.276;2023-04-23T02:25:16;592.85;;;265.48;;
57231;SDS011;43488;46.934;8.276;2023-04-23T02:27:44;582.75;;;255.55;;
57231;SDS011;43488;46.934;8.276;2023-04-23T02:30:11;592.65;;;261.88;;
57231;SDS011;43488;46.934;8.276;2023-04-23T02:32:39;583.40;;;240.38;;
57231;SDS011;43488;46.934;8.276;2023-04-23T02:35:08;582.30;;;255.60;;
57231;SDS011;43488;46.934;8.276;2023-04-23T02:37:39;576.47;;;253.25;;
57231;SDS011;43488;46.934;8.276;2023-04-23T02:40:06;583.78;;;256.45;;
57231;SDS011;43488;46.934;8.276;2023-04-23T02:42:35;574.65;;;249.52;;
57231;SDS011;43488;46.934;8.276;2023-04-23T02:45:03;576.22;;;249.73;;
57231;SDS011;43488;46.934;8.276;2023-04-23T02:47:30;572.33;;;248.55;;
57231;SDS011;43488;46.934;8.276;2023-04-23T02:49:58;582.80;;;255.32;;
57231;SDS011;43488;46.934;8.276;2023-04-23T02:52:28;568.08;;;242.63;;
57231;SDS011;43488;46.934;8.276;2023-04-23T02:54:55;575.47;;;249.45;;
57231;SDS011;43488;46.934;8.276;2023-04-23T02:57:23;586.28;;;265.23;;
57231;SDS011;43488;46.934;8.276;2023-04-23T02:59:50;584.42;;;257.70;;
57231;SDS011;43488;46.934;8.276;2023-04-23T03:02:18;580.15;;;252.55;;
57231;SDS011;43488;46.934;8.276;2023-04-23T03:04:45;584.33;;;258.92;;
57231;SDS011;43488;46.934;8.276;2023-04-23T03:07:12;583.45;;;260.88;;
57231;SDS011;43488;46.934;8.276;2023-04-23T03:09:42;581.20;;;256.92;;
57231;SDS011;43488;46.934;8.276;2023-04-23T03:12:23;578.03;;;256.05;;
57231;SDS011;43488;46.934;8.276;2023-04-23T03:15:00;575.25;;;250.32;;
57231;SDS011;43488;46.934;8.276;2023-04-23T03:17:27;574.85;;;255.68;;
57231;SDS011;43488;46.934;8.276;2023-04-23T03:19:56;576.65;;;256.63;;
57231;SDS011;43488;46.934;8.276;2023-04-23T03:22:26;565.83;;;247.60;;
57231;SDS011;43488;46.934;8.276;2023-04-23T03:24:54;545.22;;;235.23;;
57231;SDS011;43488;46.934;8.276;2023-04-23T03:27:21;549.67;;;241.02;;
57231;SDS011;43488;46.934;8.276;2023-04-23T03:29:48;517.33;;;222.80;;
57231;SDS011;43488;46.934;8.276;2023-04-23T03:32:15;576.92;;;251.27;;
57231;SDS011;43488;46.934;8.276;2023-04-23T03:34:43;575.50;;;254.02;;
57231;SDS011;43488;46.934;8.276;2023-04-23T03:37:16;586.47;;;259.27;;
57231;SDS011;43488;46.934;8.276;2023-04-23T03:39:47;586.20;;;254.82;;
57231;SDS011;43488;46.934;8.276;2023-04-23T03:42:15;588.63;;;260.13;;
57231;SDS011;43488;46.934;8.276;2023-04-23T03:44:51;588.30;;;257.25;;
57231;SDS011;43488;46.934;8.276;2023-04-23T03:47:19;584.65;;;255.85;;
57231;SDS011;43488;46.934;8.276;2023-04-23T03:50:00;578.33;;;250.00;;
57231;SDS011;43488;46.934;8.276;2023-04-23T03:52:27;574.97;;;246.82;;
57231;SDS011;43488;46.934;8.276;2023-04-23T03:54:59;573.97;;;248.65;;
57231;SDS011;43488;46.934;8.276;2023-04-23T03:57:33;575.92;;;255.57;;
57231;SDS011;43488;46.934;8.276;2023-04-23T04:00:09;580.75;;;257.65;;
57231;SDS011;43488;46.934;8.276;2023-04-23T04:02:37;576.47;;;254.52;;
57231;SDS011;43488;46.934;8.276;2023-04-23T04:05:06;574.97;;;252.77;;
57231;SDS011;43488;46.934;8.276;2023-04-23T04:07:44;578.03;;;261.70;;
57231;SDS011;43488;46.934;8.276;2023-04-23T04:12:38;566.15;;;244.07;;
57231;SDS011;43488;46.934;8.276;2023-04-23T04:15:17;580.75;;;253.18;;
57231;SDS011;43488;46.934;8.276;2023-04-23T04:17:46;578.47;;;249.45;;
57231;SDS011;43488;46.934;8.276;2023-04-23T04:20:14;581.85;;;251.57;;
57231;SDS011;43488;46.934;8.276;2023-04-23T04:22:41;583.53;;;255.30;;
57231;SDS011;43488;46.934;8.276;2023-04-23T04:25:14;583.25;;;254.43;;
57231;SDS011;43488;46.934;8.276;2023-04-23T04:27:42;583.22;;;256.48;;
57231;SDS011;43488;46.934;8.276;2023-04-23T04:30:09;573.22;;;243.88;;
57231;SDS011;43488;46.934;8.276;2023-04-23T04:32:37;579.00;;;250.93;;
57231;SDS011;43488;46.934;8.276;2023-04-23T04:35:06;582.58;;;254.93;;
57231;SDS011;43488;46.934;8.276;2023-04-23T04:37:58;582.63;;;256.55;;
57231;SDS011;43488;46.934;8.276;2023-04-23T04:40:26;584.50;;;254.93;;
57231;SDS011;43488;46.934;8.276;2023-04-23T04:43:00;581.72;;;252.90;;
57231;SDS011;43488;46.934;8.276;2023-04-23T04:45:27;587.22;;;255.27;;
57231;SDS011;43488;46.934;8.276;2023-04-23T04:47:55;590.03;;;258.30;;
57231;SDS011;43488;46.934;8.276;2023-04-23T04:50:23;588.45;;;248.13;;
57231;SDS011;43488;46.934;8.276;2023-04-23T04:52:50;573.05;;;248.13;;
57231;SDS011;43488;46.934;8.276;2023-04-23T04:55:18;581.92;;;252.68;;
57231;SDS011;43488;46.934;8.276;2023-04-23T04:57:45;588.97;;;262.17;;
57231;SDS011;43488;46.934;8.276;2023-04-23T05:00:19;596.65;;;257.67;;
57231;SDS011;43488;46.934;8.276;2023-04-23T05:02:49;603.90;;;258.73;;
57231;SDS011;43488;46.934;8.276;2023-04-23T05:05:18;615.58;;;268.42;;
57231;SDS011;43488;46.934;8.276;2023-04-23T05:10:18;616.78;;;268.15;;
57231;SDS011;43488;46.934;8.276;2023-04-23T05:12:46;611.58;;;269.25;;
57231;SDS011;43488;46.934;8.276;2023-04-23T05:15:17;610.35;;;265.38;;
57231;SDS011;43488;46.934;8.276;2023-04-23T05:17:45;611.40;;;265.45;;
57231;SDS011;43488;46.934;8.276;2023-04-23T05:20:13;612.33;;;265.27;;
57231;SDS011;43488;46.934;8.276;2023-04-23T05:22:53;614.63;;;267.50;;
57231;SDS011;43488;46.934;8.276;2023-04-23T05:25:21;612.13;;;266.67;;
57231;SDS011;43488;46.934;8.276;2023-04-23T05:27:48;623.33;;;280.63;;
57231;SDS011;43488;46.934;8.276;2023-04-23T05:30:16;632.95;;;281.80;;
57231;SDS011;43488;46.934;8.276;2023-04-23T05:32:43;631.78;;;279.23;;
57231;SDS011;43488;46.934;8.276;2023-04-23T05:35:14;624.22;;;266.95;;
57231;SDS011;43488;46.934;8.276;2023-04-23T05:37:49;630.47;;;278.00;;
57231;SDS011;43488;46.934;8.276;2023-04-23T05:40:18;639.58;;;284.92;;
57231;SDS011;43488;46.934;8.276;2023-04-23T05:42:45;620.67;;;264.20;;
57231;SDS011;43488;46.934;8.276;2023-04-23T05:45:12;633.90;;;276.83;;
57231;SDS011;43488;46.934;8.276;2023-04-23T05:47:40;628.05;;;273.95;;
57231;SDS011;43488;46.934;8.276;2023-04-23T05:50:07;632.72;;;276.52;;
57231;SDS011;43488;46.934;8.276;2023-04-23T05:52:37;641.83;;;285.83;;
57231;SDS011;43488;46.934;8.276;2023-04-23T05:55:05;633.35;;;274.73;;
57231;SDS011;43488;46.934;8.276;2023-04-23T05:57:35;638.83;;;283.25;;
57231;SDS011;43488;46.934;8.276;2023-04-23T06:00:04;637.40;;;280.63;;
57231;SDS011;43488;46.934;8.276;2023-04-23T06:02:37;629.35;;;273.45;;
57231;SDS011;43488;46.934;8.276;2023-04-23T06:05:05;642.97;;;287.40;;
57231;SDS011;43488;46.934;8.276;2023-04-23T06:07:33;637.88;;;285.27;;
57231;SDS011;43488;46.934;8.276;2023-04-23T06:10:02;640.53;;;283.88;;
57231;SDS011;43488;46.934;8.276;2023-04-23T06:12:31;639.28;;;279.15;;
57231;SDS011;43488;46.934;8.276;2023-04-23T06:14:59;629.80;;;268.40;;
57231;SDS011;43488;46.934;8.276;2023-04-23T06:17:26;645.78;;;291.60;;
57231;SDS011;43488;46.934;8.276;2023-04-23T06:19:53;653.80;;;300.80;;
57231;SDS011;43488;46.934;8.276;2023-04-23T06:22:22;647.25;;;290.88;;
57231;SDS011;43488;46.934;8.276;2023-04-23T06:24:49;646.92;;;286.70;;
57231;SDS011;43488;46.934;8.276;2023-04-23T06:27:17;650.47;;;295.25;;
57231;SDS011;43488;46.934;8.276;2023-04-23T06:29:44;643.22;;;283.83;;
57231;SDS011;43488;46.934;8.276;2023-04-23T06:32:12;644.35;;;282.92;;
57231;SDS011;43488;46.934;8.276;2023-04-23T06:34:39;652.10;;;293.27;;
57231;SDS011;43488;46.934;8.276;2023-04-23T06:37:06;645.13;;;290.25;;
57231;SDS011;43488;46.934;8.276;2023-04-23T06:39:34;651.90;;;291.38;;
57231;SDS011;43488;46.934;8.276;2023-04-23T06:42:02;644.50;;;285.05;;
57231;SDS011;43488;46.934;8.276;2023-04-23T06:44:29;652.30;;;292.95;;
57231;SDS011;43488;46.934;8.276;2023-04-23T06:46:57;642.10;;;285.95;;
57231;SDS011;43488;46.934;8.276;2023-04-23T06:49:24;646.47;;;281.98;;
57231;SDS011;43488;46.934;8.276;2023-04-23T06:51:51;644.97;;;283.92;;
57231;SDS011;43488;46.934;8.276;2023-04-23T06:54:18;637.58;;;278.00;;
57231;SDS011;43488;46.934;8.276;2023-04-23T06:56:47;652.97;;;295.23;;
57231;SDS011;43488;46.934;8.276;2023-04-23T06:59:14;651.13;;;287.27;;
57231;SDS011;43488;46.934;8.276;2023-04-23T07:01:42;651.22;;;294.73;;
57231;SDS011;43488;46.934;8.276;2023-04-23T07:04:10;660.85;;;304.65;;
57231;SDS011;43488;46.934;8.276;2023-04-23T07:06:38;650.00;;;293.15;;
57231;SDS011;43488;46.934;8.276;2023-04-23T07:09:05;659.17;;;299.00;;
57231;SDS011;43488;46.934;8.276;2023-04-23T07:11:32;652.10;;;288.63;;
57231;SDS011;43488;46.934;8.276;2023-04-23T07:14:02;662.83;;;307.45;;
57231;SDS011;43488;46.934;8.276;2023-04-23T07:16:29;657.47;;;300.80;;
57231;SDS011;43488;46.934;8.276;2023-04-23T07:18:59;659.65;;;297.90;;
57231;SDS011;43488;46.934;8.276;2023-04-23T07:21:27;654.28;;;296.13;;
57231;SDS011;43488;46.934;8.276;2023-04-23T07:23:55;661.83;;;304.10;;
57231;SDS011;43488;46.934;8.276;2023-04-23T07:26:25;650.10;;;292.85;;
57231;SDS011;43488;46.934;8.276;2023-04-23T07:28:53;652.78;;;287.80;;
57231;SDS011;43488;46.934;8.276;2023-04-23T07:31:23;657.57;;;297.00;;
57231;SDS011;43488;46.934;8.276;2023-04-23T07:33:51;657.88;;;295.73;;
57231;SDS011;43488;46.934;8.276;2023-04-23T07:36:18;656.13;;;298.27;;
57231;SDS011;43488;46.934;8.276;2023-04-23T07:38:46;654.53;;;289.40;;
57231;SDS011;43488;46.934;8.276;2023-04-23T07:41:13;654.55;;;290.17;;
57231;SDS011;43488;46.934;8.276;2023-04-23T07:43:41;659.50;;;294.58;;
57231;SDS011;43488;46.934;8.276;2023-04-23T07:46:10;659.70;;;302.88;;
57231;SDS011;43488;46.934;8.276;2023-04-23T07:48:38;657.13;;;288.70;;
57231;SDS011;43488;46.934;8.276;2023-04-23T07:51:07;660.58;;;295.45;;
57231;SDS011;43488;46.934;8.276;2023-04-23T07:53:35;661.00;;;296.33;;
57231;SDS011;43488;46.934;8.276;2023-04-23T07:56:02;662.92;;;301.35;;
57231;SDS011;43488;46.934;8.276;2023-04-23T07:58:29;659.40;;;289.42;;
57231;SDS011;43488;46.934;8.276;2023-04-23T08:00:58;664.85;;;302.42;;
57231;SDS011;43488;46.934;8.276;2023-04-23T08:03:27;662.72;;;296.77;;
57231;SDS011;43488;46.934;8.276;2023-04-23T08:05:55;668.80;;;313.02;;
57231;SDS011;43488;46.934;8.276;2023-04-23T08:08:22;663.90;;;299.45;;
57231;SDS011;43488;46.934;8.276;2023-04-23T08:10:50;655.85;;;291.40;;
57231;SDS011;43488;46.934;8.276;2023-04-23T08:13:17;662.15;;;299.08;;
57231;SDS011;43488;46.934;8.276;2023-04-23T08:15:45;663.22;;;305.88;;
57231;SDS011;43488;46.934;8.276;2023-04-23T08:18:14;662.30;;;293.85;;
57231;SDS011;43488;46.934;8.276;2023-04-23T08:20:42;663.40;;;297.42;;
57231;SDS011;43488;46.934;8.276;2023-04-23T08:23:09;668.78;;;304.35;;
57231;SDS011;43488;46.934;8.276;2023-04-23T08:25:37;661.55;;;296.42;;
57231;SDS011;43488;46.934;8.276;2023-04-23T08:28:05;662.97;;;289.98;;
57231;SDS011;43488;46.934;8.276;2023-04-23T08:30:32;662.30;;;295.50;;
57231;SDS011;43488;46.934;8.276;2023-04-23T08:32:59;666.38;;;294.92;;
57231;SDS011;43488;46.934;8.276;2023-04-23T08:35:29;672.40;;;309.35;;
57231;SDS011;43488;46.934;8.276;2023-04-23T08:37:59;653.53;;;278.05;;
57231;SDS011;43488;46.934;8.276;2023-04-23T08:40:29;675.20;;;307.33;;
57231;SDS011;43488;46.934;8.276;2023-04-23T08:43:01;653.95;;;278.52;;
57231;SDS011;43488;46.934;8.276;2023-04-23T08:45:34;668.80;;;305.52;;
57231;SDS011;43488;46.934;8.276;2023-04-23T08:48:06;650.22;;;272.73;;
57231;SDS011;43488;46.934;8.276;2023-04-23T08:50:36;671.10;;;300.77;;
57231;SDS011;43488;46.934;8.276;2023-04-23T08:53:07;660.83;;;284.63;;
57231;SDS011;43488;46.934;8.276;2023-04-23T08:55:36;673.42;;;309.52;;
57231;SDS011;43488;46.934;8.276;2023-04-23T08:58:03;663.95;;;287.85;;
57231;SDS011;43488;46.934;8.276;2023-04-23T09:00:32;674.17;;;305.27;;
57231;SDS011;43488;46.934;8.276;2023-04-23T09:03:08;658.90;;;284.05;;
57231;SDS011;43488;46.934;8.276;2023-04-23T09:05:37;681.15;;;317.35;;
57231;SDS011;43488;46.934;8.276;2023-04-23T09:08:05;672.00;;;293.92;;
57231;SDS011;43488;46.934;8.276;2023-04-23T09:10:34;675.22;;;304.73;;
57231;SDS011;43488;46.934;8.276;2023-04-23T09:13:08;673.03;;;300.58;;
57231;SDS011;43488;46.934;8.276;2023-04-23T09:15:38;680.60;;;310.48;;
57231;SDS011;43488;46.934;8.276;2023-04-23T09:18:09;678.40;;;302.88;;
57231;SDS011;43488;46.934;8.276;2023-04-23T09:20:36;673.95;;;298.60;;
57231;SDS011;43488;46.934;8.276;2023-04-23T09:23:07;692.22;;;318.83;;
57231;SDS011;43488;46.934;8.276;2023-04-23T09:25:34;675.92;;;298.48;;
57231;SDS011;43488;46.934;8.276;2023-04-23T09:28:02;677.15;;;292.70;;
57231;SDS011;43488;46.934;8.276;2023-04-23T09:30:37;686.78;;;298.38;;
57231;SDS011;43488;46.934;8.276;2023-04-23T09:33:12;694.60;;;316.33;;
57231;SDS011;43488;46.934;8.276;2023-04-23T09:35:42;699.63;;;325.98;;
57231;SDS011;43488;46.934;8.276;2023-04-23T09:38:10;710.85;;;317.60;;
57231;SDS011;43488;46.934;8.276;2023-04-23T09:40:37;709.53;;;314.40;;
57231;SDS011;43488;46.934;8.276;2023-04-23T09:43:06;708.88;;;313.42;;
57231;SDS011;43488;46.934;8.276;2023-04-23T09:45:46;707.50;;;314.37;;
57231;SDS011;43488;46.934;8.276;2023-04-23T09:48:15;719.78;;;320.45;;
57231;SDS011;43488;46.934;8.276;2023-04-23T09:50:43;732.80;;;330.83;;
57231;SDS011;43488;46.934;8.276;2023-04-23T09:53:10;722.72;;;317.63;;
57231;SDS011;43488;46.934;8.276;2023-04-23T09:55:42;728.70;;;331.80;;
57231;SDS011;43488;46.934;8.276;2023-04-23T09:58:16;718.85;;;299.75;;
57231;SDS011;43488;46.934;8.276;2023-04-23T10:00:50;732.08;;;327.45;;
57231;SDS011;43488;46.934;8.276;2023-04-23T10:03:25;702.25;;;309.75;;
57231;SDS011;43488;46.934;8.276;2023-04-23T10:06:06;678.20;;;296.10;;
57231;SDS011;43488;46.934;8.276;2023-04-23T10:08:33;694.88;;;312.52;;
57231;SDS011;43488;46.934;8.276;2023-04-23T10:11:02;688.97;;;307.45;;
57231;SDS011;43488;46.934;8.276;2023-04-23T10:13:30;692.42;;;311.13;;
57231;SDS011;43488;46.934;8.276;2023-04-23T10:16:05;694.85;;;318.83;;
57231;SDS011;43488;46.934;8.276;2023-04-23T10:18:52;694.38;;;318.35;;
57231;SDS011;43488;46.934;8.276;2023-04-23T10:21:28;669.13;;;296.27;;
57231;SDS011;43488;46.934;8.276;2023-04-23T10:23:57;702.97;;;308.77;;
57231;SDS011;43488;46.934;8.276;2023-04-23T10:26:27;716.92;;;329.27;;
57231;SDS011;43488;46.934;8.276;2023-04-23T10:29:00;704.92;;;308.05;;
57231;SDS011;43488;46.934;8.276;2023-04-23T10:32:02;714.10;;;325.85;;
57231;SDS011;43488;46.934;8.276;2023-04-23T10:34:32;610.70;;;273.35;;
57231;SDS011;43488;46.934;8.276;2023-04-23T10:37:00;611.90;;;269.80;;
57231;SDS011;43488;46.934;8.276;2023-04-23T10:39:31;609.50;;;269.90;;
57231;SDS011;43488;46.934;8.276;2023-04-23T10:42:01;614.90;;;270.52;;
57231;SDS011;43488;46.934;8.276;2023-04-23T10:44:36;624.35;;;279.17;;
57231;SDS011;43488;46.934;8.276;2023-04-23T10:47:34;627.17;;;280.77;;
57231;SDS011;43488;46.934;8.276;2023-04-23T10:50:22;624.47;;;271.73;;
57231;SDS011;43488;46.934;8.276;2023-04-23T10:52:53;629.40;;;282.55;;
57231;SDS011;43488;46.934;8.276;2023-04-23T10:55:26;620.97;;;266.33;;
57231;SDS011;43488;46.934;8.276;2023-04-23T11:00:43;619.28;;;258.27;;
57231;SDS011;43488;46.934;8.276;2023-04-23T11:06:13;635.13;;;282.88;;
57231;SDS011;43488;46.934;8.276;2023-04-23T11:12:29;603.95;;;260.58;;
57231;SDS011;43488;46.934;8.276;2023-04-23T11:15:08;603.95;;;267.73;;
57231;SDS011;43488;46.934;8.276;2023-04-23T11:20:17;534.50;;;240.77;;
57231;SDS011;43488;46.934;8.276;2023-04-23T11:22:48;624.90;;;286.30;;
57231;SDS011;43488;46.934;8.276;2023-04-23T11:25:26;626.85;;;282.90;;
57231;SDS011;43488;46.934;8.276;2023-04-23T11:27:55;588.03;;;263.80;;
57231;SDS011;43488;46.934;8.276;2023-04-23T11:30:29;562.33;;;249.48;;
57231;SDS011;43488;46.934;8.276;2023-04-23T11:33:03;610.75;;;264.35;;
57231;SDS011;43488;46.934;8.276;2023-04-23T11:35:31;568.47;;;249.57;;
57231;SDS011;43488;46.934;8.276;2023-04-23T11:38:08;482.65;;;214.52;;
57231;SDS011;43488;46.934;8.276;2023-04-23T11:40:36;487.20;;;221.27;;
57231;SDS011;43488;46.934;8.276;2023-04-23T11:43:05;473.50;;;210.48;;
57231;SDS011;43488;46.934;8.276;2023-04-23T11:45:34;371.05;;;180.30;;
57231;SDS011;43488;46.934;8.276;2023-04-23T11:48:03;304.10;;;165.82;;
57231;SDS011;43488;46.934;8.276;2023-04-23T11:53:04;352.58;;;171.13;;
57231;SDS011;43488;46.934;8.276;2023-04-23T11:55:37;347.52;;;173.07;;
57231;SDS011;43488;46.934;8.276;2023-04-23T11:58:09;394.17;;;185.13;;
57231;SDS011;43488;46.934;8.276;2023-04-23T12:00:37;371.80;;;182.43;;
57231;SDS011;43488;46.934;8.276;2023-04-23T12:03:05;322.38;;;165.73;;
57231;SDS011;43488;46.934;8.276;2023-04-23T12:08:11;531.47;;;236.25;;
57231;SDS011;43488;46.934;8.276;2023-04-23T12:13:25;528.25;;;237.38;;
57231;SDS011;43488;46.934;8.276;2023-04-23T12:15:59;529.92;;;241.18;;
57231;SDS011;43488;46.934;8.276;2023-04-23T12:18:31;538.63;;;243.80;;
57231;SDS011;43488;46.934;8.276;2023-04-23T12:21:07;540.13;;;250.77;;
57231;SDS011;43488;46.934;8.276;2023-04-23T12:23:37;538.60;;;241.48;;
57231;SDS011;43488;46.934;8.276;2023-04-23T12:26:10;538.58;;;245.85;;
57231;SDS011;43488;46.934;8.276;2023-04-23T12:31:22;541.53;;;244.93;;
57231;SDS011;43488;46.934;8.276;2023-04-23T12:34:01;533.37;;;233.30;;
57231;SDS011;43488;46.934;8.276;2023-04-23T12:36:34;532.42;;;238.57;;
57231;SDS011;43488;46.934;8.276;2023-04-23T12:41:48;530.60;;;236.38;;
57231;SDS011;43488;46.934;8.276;2023-04-23T12:44:23;543.70;;;241.07;;
57231;SDS011;43488;46.934;8.276;2023-04-23T12:46:57;545.83;;;244.97;;
57231;SDS011;43488;46.934;8.276;2023-04-23T12:49:34;538.83;;;237.23;;
57231;SDS011;43488;46.934;8.276;2023-04-23T12:52:05;547.22;;;250.70;;
57231;SDS011;43488;46.934;8.276;2023-04-23T12:54:37;548.03;;;245.55;;
57231;SDS011;43488;46.934;8.276;2023-04-23T12:57:12;550.28;;;249.02;;
57231;SDS011;43488;46.934;8.276;2023-04-23T12:59:39;555.60;;;258.13;;
57231;SDS011;43488;46.934;8.276;2023-04-23T13:02:07;550.67;;;250.68;;
57231;SDS011;43488;46.934;8.276;2023-04-23T13:04:35;553.95;;;245.70;;
57231;SDS011;43488;46.934;8.276;2023-04-23T13:07:02;555.55;;;250.30;;
57231;SDS011;43488;46.934;8.276;2023-04-23T13:09:30;559.30;;;258.63;;
57231;SDS011;43488;46.934;8.276;2023-04-23T13:12:00;549.33;;;244.50;;
57231;SDS011;43488;46.934;8.276;2023-04-23T13:14:28;571.75;;;255.82;;
57231;SDS011;43488;46.934;8.276;2023-04-23T13:16:57;560.58;;;253.48;;
57231;SDS011;43488;46.934;8.276;2023-04-23T13:19:24;571.00;;;254.23;;
57231;SDS011;43488;46.934;8.276;2023-04-23T13:21:52;557.40;;;254.45;;
57231;SDS011;43488;46.934;8.276;2023-04-23T13:24:19;554.42;;;249.15;;
57231;SDS011;43488;46.934;8.276;2023-04-23T13:26:47;475.92;;;210.98;;
57231;SDS011;43488;46.934;8.276;2023-04-23T13:29:16;475.20;;;218.90;;
57231;SDS011;43488;46.934;8.276;2023-04-23T13:31:44;447.50;;;209.50;;
57231;SDS011;43488;46.934;8.276;2023-04-23T13:34:11;467.38;;;218.23;;
57231;SDS011;43488;46.934;8.276;2023-04-23T13:36:38;502.38;;;227.98;;
57231;SDS011;43488;46.934;8.276;2023-04-23T13:39:18;524.00;;;242.53;;
57231;SDS011;43488;46.934;8.276;2023-04-23T13:41:47;564.78;;;253.18;;
57231;SDS011;43488;46.934;8.276;2023-04-23T13:44:14;612.47;;;270.30;;
57231;SDS011;43488;46.934;8.276;2023-04-23T13:46:42;641.95;;;286.17;;
57231;SDS011;43488;46.934;8.276;2023-04-23T13:49:09;659.08;;;296.92;;
57231;SDS011;43488;46.934;8.276;2023-04-23T13:51:37;671.20;;;299.55;;
57231;SDS011;43488;46.934;8.276;2023-04-23T13:54:09;680.47;;;295.92;;
57231;SDS011;43488;46.934;8.276;2023-04-23T13:56:37;638.97;;;288.00;;
57231;SDS011;43488;46.934;8.276;2023-04-23T13:59:06;647.75;;;292.73;;
57231;SDS011;43488;46.934;8.276;2023-04-23T14:01:33;638.60;;;279.98;;
57231;SDS011;43488;46.934;8.276;2023-04-23T14:04:00;648.13;;;288.05;;
57231;SDS011;43488;46.934;8.276;2023-04-23T14:06:29;523.05;;;236.02;;
57231;SDS011;43488;46.934;8.276;2023-04-23T14:08:59;530.88;;;240.50;;
57231;SDS011;43488;46.934;8.276;2023-04-23T14:11:27;635.72;;;289.92;;
57231;SDS011;43488;46.934;8.276;2023-04-23T14:13:54;577.25;;;240.88;;
57231;SDS011;43488;46.934;8.276;2023-04-23T14:16:22;616.22;;;280.52;;
57231;SDS011;43488;46.934;8.276;2023-04-23T14:18:50;607.28;;;269.70;;
57231;SDS011;43488;46.934;8.276;2023-04-23T14:21:17;644.85;;;290.50;;
57231;SDS011;43488;46.934;8.276;2023-04-23T14:23:54;650.65;;;291.38;;
57231;SDS011;43488;46.934;8.276;2023-04-23T14:29:02;563.47;;;248.48;;
57231;SDS011;43488;46.934;8.276;2023-04-23T14:32:03;625.20;;;268.27;;
57231;SDS011;43488;46.934;8.276;2023-04-23T14:34:31;637.28;;;281.35;;
57231;SDS011;43488;46.934;8.276;2023-04-23T14:37:02;630.10;;;271.35;;
57231;SDS011;43488;46.934;8.276;2023-04-23T14:39:30;644.22;;;290.98;;
57231;SDS011;43488;46.934;8.276;2023-04-23T14:41:59;635.33;;;283.05;;
57231;SDS011;43488;46.934;8.276;2023-04-23T14:44:28;630.90;;;271.92;;
57231;SDS011;43488;46.934;8.276;2023-04-23T14:46:55;633.67;;;278.80;;
57231;SDS011;43488;46.934;8.276;2023-04-23T14:49:22;630.75;;;277.15;;
57231;SDS011;43488;46.934;8.276;2023-04-23T14:51:51;615.85;;;276.38;;
57231;SDS011;43488;46.934;8.276;2023-04-23T14:54:23;589.03;;;265.65;;